createdAt,value
2022-07-30T00:01:35.901Z,3.47
2022-07-30T00:04:04.239Z,3.10
2022-07-30T00:06:32.830Z,3.17
2022-07-30T00:08:59.916Z,4.22
2022-07-30T00:11:28.014Z,4.03
2022-07-30T00:13:56.511Z,3.95
2022-07-30T00:16:23.864Z,3.35
2022-07-30T00:18:51.667Z,3.38
2022-07-30T00:21:34.615Z,3.85
2022-07-30T00:24:04.775Z,3.53
2022-07-30T00:26:32.147Z,3.80
2022-07-30T00:28:59.265Z,3.85
2022-07-30T00:31:26.523Z,3.58
2022-07-30T00:33:53.720Z,2.90
2022-07-30T00:36:20.915Z,3.38
2022-07-30T00:38:47.937Z,3.55
2022-07-30T00:41:15.404Z,3.30
2022-07-30T00:46:11.308Z,3.40
2022-07-30T00:48:38.558Z,3.60
2022-07-30T00:51:05.839Z,3.40
2022-07-30T00:53:34.992Z,3.60
2022-07-30T00:56:03.642Z,3.60
2022-07-30T00:58:30.919Z,3.80
2022-07-30T01:00:58.470Z,3.63
2022-07-30T01:03:25.597Z,3.55
2022-07-30T01:05:52.806Z,3.70
2022-07-30T01:08:19.807Z,3.42
2022-07-30T01:10:46.848Z,3.37
2022-07-30T01:13:14.163Z,3.37
2022-07-30T01:15:42.118Z,3.75
2022-07-30T01:21:10.883Z,3.40
2022-07-30T01:23:50.615Z,3.15
2022-07-30T01:26:22.443Z,3.10
2022-07-30T01:28:56.608Z,3.58
2022-07-30T01:31:28.736Z,3.67
2022-07-30T01:34:02.079Z,3.15
2022-07-30T01:36:32.840Z,3.70
2022-07-30T01:39:03.044Z,3.58
2022-07-30T01:41:32.441Z,3.72
2022-07-30T01:44:03.284Z,3.30
2022-07-30T01:46:33.844Z,3.60
2022-07-30T01:49:03.851Z,4.50
2022-07-30T01:51:37.639Z,3.63
2022-07-30T01:54:13.448Z,3.90
2022-07-30T01:56:46.871Z,3.40
2022-07-30T01:59:20.509Z,3.92
2022-07-30T02:01:48.428Z,3.72
2022-07-30T02:07:04.953Z,2.92
2022-07-30T02:09:51.922Z,4.07
2022-07-30T02:12:29.058Z,3.60
2022-07-30T02:15:16.556Z,5.57
2022-07-30T02:18:10.859Z,3.83
2022-07-30T02:20:44.135Z,3.40
2022-07-30T02:23:19.896Z,4.25
2022-07-30T02:25:51.886Z,3.40
2022-07-30T02:28:23.333Z,3.70
2022-07-30T02:30:58.354Z,4.05
2022-07-30T02:33:48.470Z,3.90
2022-07-30T02:36:20.040Z,3.95
2022-07-30T02:38:51.958Z,4.40
2022-07-30T02:41:28.676Z,4.20
2022-07-30T02:43:59.302Z,4.28
2022-07-30T02:46:28.696Z,4.03
2022-07-30T02:49:00.083Z,3.67
2022-07-30T02:51:29.765Z,4.53
2022-07-30T02:54:01.686Z,3.85
2022-07-30T02:56:31.279Z,3.95
2022-07-30T02:59:05.098Z,3.75
2022-07-30T03:01:35.414Z,3.50
2022-07-30T03:04:07.173Z,3.50
2022-07-30T03:06:36.438Z,3.65
2022-07-30T03:09:07.421Z,4.10
2022-07-30T03:11:36.611Z,4.05
2022-07-30T03:14:04.036Z,3.60
2022-07-30T03:16:39.142Z,3.90
2022-07-30T03:19:11.884Z,4.82
2022-07-30T03:21:42.293Z,3.88
2022-07-30T03:24:14.823Z,3.63
2022-07-30T03:26:46.981Z,3.70
2022-07-30T03:29:21.692Z,3.60
2022-07-30T03:31:50.942Z,4.45
2022-07-30T03:34:21.606Z,3.35
2022-07-30T03:36:51.398Z,3.75
2022-07-30T03:39:21.121Z,4.03
2022-07-30T03:41:50.938Z,3.47
2022-07-30T03:44:19.089Z,4.00
2022-07-30T03:46:50.608Z,3.75
2022-07-30T03:49:18.715Z,3.95
2022-07-30T03:54:17.003Z,4.00
2022-07-30T03:56:44.666Z,3.80
2022-07-30T03:59:14.639Z,3.60
2022-07-30T04:01:42.036Z,3.28
2022-07-30T04:04:11.652Z,3.97
2022-07-30T04:06:40.509Z,4.28
2022-07-30T04:09:10.343Z,4.22
2022-07-30T04:11:40.823Z,4.35
2022-07-30T04:14:09.700Z,3.47
2022-07-30T04:17:04.551Z,3.63
2022-07-30T04:19:50.903Z,3.60
2022-07-30T04:22:30.572Z,3.78
2022-07-30T04:25:01.270Z,4.05
2022-07-30T04:27:32.976Z,3.80
2022-07-30T04:30:01.061Z,3.95
2022-07-30T04:32:28.908Z,5.50
2022-07-30T04:34:57.155Z,3.83
2022-07-30T04:37:27.611Z,4.05
2022-07-30T04:39:57.657Z,3.83
2022-07-30T04:42:28.751Z,3.90
2022-07-30T04:44:57.564Z,4.00
2022-07-30T04:47:25.621Z,4.15
2022-07-30T04:49:55.325Z,4.20
2022-07-30T04:52:25.436Z,4.03
2022-07-30T04:55:02.918Z,4.28
2022-07-30T04:57:34.006Z,4.40
2022-07-30T05:00:01.696Z,4.15
2022-07-30T05:02:33.798Z,3.85
2022-07-30T05:05:03.667Z,3.70
2022-07-30T05:07:32.190Z,3.50
2022-07-30T05:09:59.795Z,3.40
2022-07-30T05:12:37.739Z,3.50
2022-07-30T05:15:07.776Z,3.33
2022-07-30T05:17:37.445Z,2.97
2022-07-30T05:20:06.660Z,3.13
2022-07-30T05:22:33.694Z,3.20
2022-07-30T05:25:00.766Z,2.77
2022-07-30T05:27:27.763Z,3.07
2022-07-30T05:29:55.330Z,2.88
2022-07-30T05:32:23.349Z,2.80
2022-07-30T05:34:54.069Z,2.90
2022-07-30T05:37:21.118Z,2.88
2022-07-30T05:39:57.365Z,2.83
2022-07-30T05:42:30.183Z,2.42
2022-07-30T05:44:57.232Z,2.40
2022-07-30T05:47:24.231Z,2.50
2022-07-30T05:49:51.246Z,2.55
2022-07-30T05:52:19.044Z,2.53
2022-07-30T05:54:46.171Z,2.30
2022-07-30T05:57:13.274Z,2.38
2022-07-30T05:59:40.357Z,2.50
2022-07-30T06:02:07.482Z,2.73
2022-07-30T06:04:35.713Z,2.57
2022-07-30T06:07:03.649Z,2.13
2022-07-30T06:09:36.919Z,2.38
2022-07-30T06:12:06.551Z,1.98
2022-07-30T06:14:33.855Z,2.03
2022-07-30T06:17:01.279Z,2.00
2022-07-30T06:19:28.668Z,2.30
2022-07-30T06:22:05.569Z,2.40
2022-07-30T06:24:34.711Z,2.45
2022-07-30T06:27:02.293Z,2.35
2022-07-30T06:29:30.203Z,2.42
2022-07-30T06:31:57.233Z,2.22
2022-07-30T06:34:24.235Z,2.60
2022-07-30T06:36:51.313Z,2.47
2022-07-30T06:39:57.613Z,2.28
2022-07-30T06:42:06.882Z,2.40
2022-07-30T06:44:34.154Z,2.17
2022-07-30T06:47:07.013Z,2.00
2022-07-30T06:49:37.407Z,2.58
2022-07-30T06:52:05.828Z,2.45
2022-07-30T06:54:32.972Z,2.63
2022-07-30T06:57:00.312Z,2.35
2022-07-30T06:59:28.214Z,1.90
2022-07-30T07:01:55.351Z,2.17
2022-07-30T07:04:23.183Z,2.40
2022-07-30T07:06:50.236Z,2.00
2022-07-30T07:09:17.372Z,2.17
2022-07-30T07:11:44.406Z,2.33
2022-07-30T07:14:11.451Z,2.10
2022-07-30T07:16:38.548Z,2.10
2022-07-30T07:19:05.673Z,2.05
2022-07-30T07:21:33.221Z,1.77
2022-07-30T07:24:03.247Z,2.50
2022-07-30T07:26:32.440Z,2.03
2022-07-30T07:29:03.499Z,2.45
2022-07-30T07:32:07.442Z,2.35
2022-07-30T07:34:19.724Z,1.88
2022-07-30T07:36:46.839Z,2.03
2022-07-30T07:39:15.004Z,2.35
2022-07-30T07:41:48.993Z,2.50
2022-07-30T07:44:16.777Z,2.20
2022-07-30T07:46:43.908Z,2.20
2022-07-30T07:49:11.175Z,2.13
2022-07-30T07:51:47.385Z,2.58
2022-07-30T07:54:24.350Z,2.17
2022-07-30T07:56:55.947Z,2.28
2022-07-30T07:59:25.471Z,1.85
2022-07-30T08:02:08.726Z,2.58
2022-07-30T08:04:36.514Z,2.10
2022-07-30T08:07:04.619Z,2.10
2022-07-30T08:09:44.422Z,2.03
2022-07-30T08:12:15.396Z,2.10
2022-07-30T08:14:42.395Z,2.22
2022-07-30T08:17:09.812Z,2.40
2022-07-30T08:19:36.905Z,2.10
2022-07-30T08:22:04.066Z,2.20
2022-07-30T08:24:31.501Z,2.40
2022-07-30T08:26:59.258Z,2.47
2022-07-30T08:29:26.473Z,2.30
2022-07-30T08:31:53.613Z,2.45
2022-07-30T08:34:20.924Z,2.50
2022-07-30T08:36:53.128Z,2.15
2022-07-30T08:39:20.171Z,2.60
2022-07-30T08:41:49.169Z,2.25
2022-07-30T08:44:19.710Z,2.40
2022-07-30T08:46:50.754Z,2.28
2022-07-30T08:49:20.023Z,2.28
2022-07-30T08:51:47.889Z,2.40
2022-07-30T08:54:16.730Z,2.58
2022-07-30T08:56:45.401Z,2.58
2022-07-30T08:59:13.028Z,2.55
2022-07-30T09:01:40.081Z,2.55
2022-07-30T09:04:07.248Z,2.80
2022-07-30T09:06:35.957Z,2.30
2022-07-30T09:09:03.895Z,2.47
2022-07-30T09:11:36.226Z,2.75
2022-07-30T09:14:13.862Z,2.58
2022-07-30T09:16:44.664Z,2.10
2022-07-30T09:19:19.686Z,2.10
2022-07-30T09:22:02.854Z,2.80
2022-07-30T09:24:45.955Z,2.10
2022-07-30T09:27:13.114Z,2.50
2022-07-30T09:29:40.229Z,2.55
2022-07-30T09:32:09.735Z,2.85
2022-07-30T09:34:40.192Z,2.75
2022-07-30T09:37:10.096Z,2.40
2022-07-30T09:39:59.329Z,2.67
2022-07-30T09:42:29.651Z,2.75
2022-07-30T09:45:16.025Z,2.70
2022-07-30T09:47:48.470Z,2.50
2022-07-30T09:50:29.341Z,2.60
2022-07-30T09:53:11.971Z,2.47
2022-07-30T09:55:41.966Z,2.83
2022-07-30T09:58:12.913Z,2.60
2022-07-30T10:00:46.190Z,2.58
2022-07-30T10:03:33.882Z,2.58
2022-07-30T10:06:05.758Z,2.50
2022-07-30T10:08:46.689Z,2.72
2022-07-30T10:11:23.777Z,2.85
2022-07-30T10:13:57.925Z,2.55
2022-07-30T10:16:29.680Z,2.85
2022-07-30T10:19:00.237Z,2.58
2022-07-30T10:21:32.438Z,2.65
2022-07-30T10:24:04.284Z,2.70
2022-07-30T10:26:35.399Z,2.30
2022-07-30T10:29:05.148Z,2.25
2022-07-30T10:31:46.904Z,2.65
2022-07-30T10:34:23.965Z,2.28
2022-07-30T10:37:04.647Z,2.65
2022-07-30T10:40:10.409Z,2.40
2022-07-30T10:43:31.484Z,2.58
2022-07-30T10:47:07.306Z,2.50
2022-07-30T10:49:41.048Z,2.70
2022-07-30T10:52:12.016Z,2.45
2022-07-30T10:54:45.314Z,2.67
2022-07-30T10:57:31.619Z,2.20
2022-07-30T10:59:59.926Z,2.53
2022-07-30T11:02:35.406Z,2.30
2022-07-30T11:05:45.583Z,2.35
2022-07-30T11:11:59.518Z,2.35
2022-07-30T11:14:08.980Z,2.10
2022-07-30T11:16:36.975Z,1.88
2022-07-30T11:19:56.989Z,2.47
2022-07-30T11:22:41.244Z,1.80
2022-07-30T11:25:50.346Z,2.10
2022-07-30T11:28:45.535Z,2.13
2022-07-30T11:31:58.832Z,1.90
2022-07-30T11:34:30.541Z,2.10
2022-07-30T11:37:19.130Z,2.13
2022-07-30T11:39:58.601Z,1.90
2022-07-30T11:42:35.917Z,1.80
2022-07-30T11:45:18.540Z,1.63
2022-07-30T11:47:57.018Z,1.90
2022-07-30T11:50:33.553Z,2.13
2022-07-30T11:53:14.559Z,1.77
2022-07-30T11:55:53.865Z,1.30
2022-07-30T11:58:39.852Z,1.85
2022-07-30T12:01:16.959Z,2.17
2022-07-30T12:03:46.354Z,1.83
2022-07-30T12:06:20.646Z,1.40
2022-07-30T12:08:58.180Z,1.50
2022-07-30T12:11:34.098Z,1.45
2022-07-30T12:14:03.388Z,1.77
2022-07-30T12:16:33.603Z,1.80
2022-07-30T12:19:09.478Z,1.63
2022-07-30T12:21:37.226Z,1.70
2022-07-30T12:24:13.772Z,1.48
2022-07-30T12:26:40.927Z,1.83
2022-07-30T12:29:13.292Z,1.55
2022-07-30T12:31:41.969Z,1.80
2022-07-30T12:34:27.776Z,1.77
2022-07-30T12:36:55.638Z,2.25
2022-07-30T12:39:27.105Z,1.40
2022-07-30T12:41:56.265Z,1.60
2022-07-30T12:44:46.535Z,1.90
2022-07-30T12:47:27.417Z,1.83
2022-07-30T12:50:00.891Z,2.00
2022-07-30T12:52:35.886Z,1.98
2022-07-30T12:55:13.221Z,1.77
2022-07-30T12:58:08.430Z,1.43
2022-07-30T13:00:44.902Z,2.22
2022-07-30T13:03:27.661Z,1.98
2022-07-30T13:05:57.340Z,1.98
2022-07-30T13:08:57.729Z,2.53
2022-07-30T13:11:49.272Z,1.63
2022-07-30T13:14:17.462Z,2.00
2022-07-30T13:16:45.661Z,1.83
2022-07-30T13:19:12.883Z,2.03
2022-07-30T13:21:49.853Z,2.03
2022-07-30T13:24:19.605Z,1.93
2022-07-30T13:26:47.261Z,2.10
2022-07-30T13:29:15.037Z,1.90
2022-07-30T13:31:43.578Z,2.47
2022-07-30T13:34:12.700Z,2.00
2022-07-30T13:36:40.200Z,2.17
2022-07-30T13:39:07.595Z,2.30
2022-07-30T13:41:36.258Z,1.80
2022-07-30T13:44:04.773Z,1.90
2022-07-30T13:46:31.912Z,2.10
2022-07-30T13:48:59.238Z,1.85
2022-07-30T13:51:26.400Z,2.17
2022-07-30T13:53:53.510Z,1.67
2022-07-30T13:56:21.587Z,1.85
2022-07-30T13:58:48.637Z,2.03
2022-07-30T14:01:18.150Z,2.33
2022-07-30T14:03:50.574Z,1.80
2022-07-30T14:06:20.174Z,2.00
2022-07-30T14:08:47.461Z,1.80
2022-07-30T14:11:15.809Z,1.80
2022-07-30T14:13:43.010Z,1.83
2022-07-30T14:16:35.365Z,2.05
2022-07-30T14:18:57.741Z,1.55
2022-07-30T14:21:25.404Z,1.80
2022-07-30T14:23:52.544Z,1.90
2022-07-30T14:26:19.729Z,1.67
2022-07-30T14:28:47.243Z,1.75
2022-07-30T14:33:41.275Z,1.90
2022-07-30T14:36:11.509Z,1.85
2022-07-30T14:38:39.953Z,1.95
2022-07-30T14:41:09.051Z,1.70
2022-07-30T14:43:36.343Z,1.70
2022-07-30T14:46:03.490Z,2.10
2022-07-30T14:48:30.606Z,1.85
2022-07-30T14:51:14.392Z,2.10
2022-07-30T14:53:47.223Z,1.80
2022-07-30T14:56:14.625Z,2.30
2022-07-30T14:58:44.816Z,1.98
2022-07-30T15:01:16.107Z,2.10
2022-07-30T15:03:46.371Z,1.73
2022-07-30T15:06:15.515Z,1.50
2022-07-30T15:08:46.024Z,1.70
2022-07-30T15:11:13.597Z,1.80
2022-07-30T15:13:49.786Z,1.80
2022-07-30T15:16:19.405Z,1.55
2022-07-30T15:18:47.187Z,1.70
2022-07-30T15:21:14.934Z,2.00
2022-07-30T15:23:42.184Z,1.88
2022-07-30T15:26:09.384Z,1.60
2022-07-30T15:28:36.439Z,1.80
2022-07-30T15:31:03.654Z,1.92
2022-07-30T15:33:30.953Z,1.60
2022-07-30T15:36:04.029Z,1.90
2022-07-30T15:38:31.105Z,1.60
2022-07-30T15:40:58.119Z,2.00
2022-07-30T15:43:25.124Z,1.70
2022-07-30T15:45:56.099Z,1.75
2022-07-30T15:48:26.937Z,1.73
2022-07-30T15:51:04.838Z,2.00
2022-07-30T15:53:33.048Z,1.80
2022-07-30T15:56:01.293Z,1.60
2022-07-30T15:58:28.552Z,1.50
2022-07-30T16:00:56.305Z,1.63
2022-07-30T16:03:23.895Z,2.05
2022-07-30T16:05:52.937Z,1.60
2022-07-30T16:08:21.656Z,1.60
2022-07-30T16:10:49.777Z,1.60
2022-07-30T16:13:16.886Z,1.65
2022-07-30T16:15:45.369Z,2.10
2022-07-30T16:18:12.507Z,1.88
2022-07-30T16:20:39.496Z,1.80
2022-07-30T16:23:12.164Z,2.20
2022-07-30T16:25:41.212Z,1.88
2022-07-30T16:28:08.228Z,2.10
2022-07-30T16:30:35.308Z,1.85
2022-07-30T16:33:16.945Z,1.73
2022-07-30T16:35:49.249Z,1.70
2022-07-30T16:38:21.056Z,1.73
2022-07-30T16:40:48.270Z,1.77
2022-07-30T16:43:19.876Z,1.65
2022-07-30T16:45:48.140Z,1.83
2022-07-30T16:48:15.307Z,1.88
2022-07-30T16:50:42.959Z,1.50
2022-07-30T16:53:14.226Z,1.70
2022-07-30T16:55:43.607Z,1.45
2022-07-30T16:58:12.460Z,1.80
2022-07-30T17:00:40.217Z,1.90
2022-07-30T17:03:08.295Z,1.60
2022-07-30T17:05:35.615Z,1.77
2022-07-30T17:08:06.496Z,1.83
2022-07-30T17:10:36.127Z,2.22
2022-07-30T17:13:03.576Z,1.88
2022-07-30T17:15:32.107Z,2.28
2022-07-30T17:18:01.807Z,1.95
2022-07-30T17:20:32.326Z,2.10
2022-07-30T17:22:59.343Z,1.70
2022-07-30T17:25:28.397Z,2.03
2022-07-30T17:27:58.671Z,1.73
2022-07-30T17:30:28.952Z,1.67
2022-07-30T17:32:56.557Z,1.67
2022-07-30T17:37:52.730Z,2.05
2022-07-30T17:40:30.628Z,1.60
2022-07-30T17:43:04.187Z,1.65
2022-07-30T17:45:35.510Z,1.70
2022-07-30T17:48:05.356Z,2.20
2022-07-30T17:50:34.737Z,2.20
2022-07-30T17:53:05.769Z,2.08
2022-07-30T17:55:35.447Z,1.77
2022-07-30T17:58:05.213Z,2.08
2022-07-30T18:00:34.758Z,1.98
2022-07-30T18:03:03.634Z,2.20
2022-07-30T18:05:30.897Z,2.10
2022-07-30T18:07:58.019Z,2.13
2022-07-30T18:10:25.059Z,2.20
2022-07-30T18:12:52.168Z,1.60
2022-07-30T18:15:19.502Z,3.05
2022-07-30T18:17:46.877Z,1.75
2022-07-30T18:20:15.387Z,2.10
2022-07-30T18:22:43.285Z,1.83
2022-07-30T18:25:18.640Z,2.03
2022-07-30T18:27:47.923Z,2.22
2022-07-30T18:30:16.149Z,2.00
2022-07-30T18:32:45.930Z,2.40
2022-07-30T18:35:15.200Z,2.05
2022-07-30T18:37:44.591Z,2.13
2022-07-30T18:40:18.551Z,2.00
2022-07-30T18:42:49.578Z,2.38
2022-07-30T18:45:16.721Z,2.40
2022-07-30T18:47:45.927Z,2.42
2022-07-30T18:50:16.068Z,2.30
2022-07-30T18:52:43.366Z,2.00
2022-07-30T18:55:12.541Z,2.13
2022-07-30T18:57:41.731Z,5.10
2022-07-30T19:00:34.790Z,2.63
2022-07-30T19:03:01.217Z,2.47
2022-07-30T19:05:28.605Z,1.92
2022-07-30T19:07:58.564Z,2.10
2022-07-30T19:10:27.264Z,2.40
2022-07-30T19:12:56.233Z,2.63
2022-07-30T19:15:23.898Z,3.08
2022-07-30T19:17:51.822Z,2.22
2022-07-30T19:22:48.481Z,2.17
2022-07-30T19:25:19.473Z,2.30
2022-07-30T19:27:47.241Z,2.60
2022-07-30T19:30:14.774Z,2.58
2022-07-30T19:32:41.925Z,2.70
2022-07-30T19:35:13.313Z,2.40
2022-07-30T19:37:41.161Z,2.00
2022-07-30T19:40:09.047Z,2.45
2022-07-30T19:42:36.830Z,2.40
2022-07-30T19:45:12.095Z,2.53
2022-07-30T19:47:42.412Z,2.30
2022-07-30T19:54:43.446Z,2.10
2022-07-30T19:57:10.509Z,2.47
2022-07-30T19:59:46.353Z,2.30
2022-07-30T20:02:24.599Z,2.40
2022-07-30T20:04:54.940Z,2.40
2022-07-30T20:07:22.904Z,2.30
2022-07-30T20:09:54.720Z,2.63
2022-07-30T20:12:24.363Z,2.77
2022-07-30T20:14:51.782Z,2.78
2022-07-30T20:17:18.866Z,2.72
2022-07-30T20:19:47.623Z,3.15
2022-07-30T20:22:16.421Z,3.33
2022-07-30T20:24:47.960Z,2.70
2022-07-30T20:27:36.331Z,2.75
2022-07-30T20:30:09.463Z,3.08
2022-07-30T20:32:43.536Z,2.78
2022-07-30T20:35:13.846Z,2.72
2022-07-30T20:40:27.826Z,3.30
2022-07-30T20:42:55.416Z,3.03
2022-07-30T20:45:24.689Z,2.97
2022-07-30T20:47:56.588Z,3.22
2022-07-30T20:50:30.636Z,3.10
2022-07-30T20:52:59.439Z,4.35
2022-07-30T20:55:27.433Z,3.15
2022-07-30T21:00:36.987Z,3.40
2022-07-30T21:03:05.609Z,3.40
2022-07-30T21:05:32.944Z,3.85
2022-07-30T21:08:00.700Z,4.22
2022-07-30T21:13:02.873Z,3.88
2022-07-30T21:15:33.083Z,3.85
2022-07-30T21:18:02.976Z,3.85
2022-07-30T21:20:31.936Z,3.70
2022-07-30T21:23:12.797Z,4.10
2022-07-30T21:26:02.851Z,4.15
2022-07-30T21:28:35.520Z,5.03
2022-07-30T21:33:52.494Z,4.28
2022-07-30T21:36:24.986Z,4.10
2022-07-30T21:38:52.504Z,4.40
2022-07-30T21:41:21.594Z,4.95
2022-07-30T21:44:07.729Z,4.55
2022-07-30T21:46:35.083Z,5.25
2022-07-30T21:49:05.472Z,4.65
2022-07-30T21:51:35.681Z,5.38
2022-07-30T21:54:07.085Z,5.35
2022-07-30T21:56:34.673Z,5.28
2022-07-30T21:59:08.969Z,5.70
2022-07-30T22:01:47.683Z,5.95
2022-07-30T22:06:43.879Z,4.95
2022-07-30T22:09:26.387Z,5.63
2022-07-30T22:12:09.038Z,5.53
2022-07-30T22:14:39.187Z,6.30
2022-07-30T22:17:22.668Z,5.63
2022-07-30T22:19:52.229Z,6.32
2022-07-30T22:22:26.106Z,5.30
2022-07-30T22:24:55.205Z,5.90
2022-07-30T22:27:24.402Z,5.05
2022-07-30T22:29:51.444Z,5.85
2022-07-30T22:32:24.481Z,5.60
2022-07-30T22:34:52.940Z,5.63
2022-07-30T22:40:09.418Z,6.10
2022-07-30T22:42:46.859Z,6.35
2022-07-30T22:45:42.293Z,6.85
2022-07-30T22:48:10.170Z,5.45
2022-07-30T22:50:40.693Z,5.25
2022-07-30T22:54:02.700Z,5.68
2022-07-30T22:55:56.372Z,6.22
2022-07-30T22:58:26.439Z,5.75
2022-07-30T23:00:54.007Z,5.55
2022-07-30T23:03:21.331Z,5.97
2022-07-30T23:05:55.809Z,6.70
2022-07-30T23:08:29.934Z,6.20
2022-07-30T23:10:59.903Z,6.57
2022-07-30T23:12:19.467Z,2.77
2022-07-30T23:12:27.406Z,4.25
2022-07-30T23:12:32.268Z,5.20
2022-07-30T23:13:28.862Z,6.45
2022-07-30T23:15:56.466Z,6.03
2022-07-30T23:18:23.969Z,6.78
2022-07-30T23:20:51.153Z,6.40
2022-07-30T23:23:18.201Z,6.50
2022-07-30T23:25:45.390Z,6.55
2022-07-30T23:28:12.670Z,6.32
2022-07-30T23:30:39.725Z,7.40
2022-07-30T23:33:06.803Z,6.80
2022-07-30T23:35:33.859Z,7.38
2022-07-30T23:38:00.860Z,7.00
2022-07-30T23:40:28.584Z,7.22
2022-07-30T23:42:55.952Z,7.50
2022-07-30T23:45:23.139Z,7.40
2022-07-30T23:48:01.384Z,7.72
2022-07-30T23:50:33.358Z,7.30
2022-07-30T23:53:03.119Z,7.40
2022-07-30T23:55:32.549Z,7.43
2022-07-30T23:58:00.421Z,8.50
